createdAt,value
2023-03-14T00:00:30.352Z,828.43
2023-03-14T00:01:30.220Z,828.49
2023-03-14T00:02:26.936Z,827.93
2023-03-14T00:03:26.813Z,827.58
2023-03-14T00:04:26.722Z,827.29
2023-03-14T00:05:30.263Z,827.04
2023-03-14T00:06:27.033Z,827.15
2023-03-14T00:07:26.948Z,827.76
2023-03-14T00:08:26.845Z,828.72
2023-03-14T00:09:26.752Z,829.63
2023-03-14T00:10:26.659Z,829.17
2023-03-14T00:11:25.911Z,828.73
2023-03-14T00:12:26.976Z,827.99
2023-03-14T00:13:26.875Z,827.77
2023-03-14T00:14:26.791Z,827.91
2023-03-14T00:15:26.687Z,827.74
2023-03-14T00:16:26.585Z,827.66
2023-03-14T00:17:27.012Z,827.16
2023-03-14T00:18:26.905Z,826.17
2023-03-14T00:19:26.814Z,825.38
2023-03-14T00:20:26.753Z,824.96
2023-03-14T00:21:26.629Z,824.28
2023-03-14T00:22:27.037Z,823.82
2023-03-14T00:23:26.944Z,823.05
2023-03-14T00:24:26.846Z,822.23
2023-03-14T00:25:26.748Z,821.59
2023-03-14T00:26:26.655Z,821.22
2023-03-14T00:27:26.228Z,821.06
2023-03-14T00:28:26.466Z,821.33
2023-03-14T00:29:26.877Z,820.91
2023-03-14T00:30:26.778Z,820.02
2023-03-14T00:31:26.741Z,818.23
2023-03-14T00:32:26.633Z,817.27
2023-03-14T00:33:26.495Z,817.06
2023-03-14T00:34:26.398Z,817.05
2023-03-14T00:35:26.813Z,817.39
2023-03-14T00:36:26.716Z,816.92
2023-03-14T00:37:26.618Z,817.02
2023-03-14T00:38:26.525Z,816.99
2023-03-14T00:39:26.431Z,817.30
2023-03-14T00:40:26.060Z,817.62
2023-03-14T00:41:26.748Z,818.05
2023-03-14T00:42:26.659Z,818.20
2023-03-14T00:43:26.558Z,818.65
2023-03-14T00:44:26.471Z,818.94
2023-03-14T00:45:26.373Z,819.44
2023-03-14T00:46:26.273Z,820.10
2023-03-14T00:47:26.690Z,820.33
2023-03-14T00:48:26.590Z,820.37
2023-03-14T00:49:26.499Z,820.26
2023-03-14T00:50:26.408Z,820.07
2023-03-14T00:51:26.300Z,820.54
2023-03-14T00:52:26.210Z,820.25
2023-03-14T00:53:26.617Z,820.27
2023-03-14T00:54:26.526Z,819.96
2023-03-14T00:55:26.445Z,820.47
2023-03-14T00:56:26.333Z,820.44
2023-03-14T00:57:26.236Z,820.23
2023-03-14T00:58:26.159Z,819.87
2023-03-14T00:59:26.555Z,819.21
2023-03-14T01:00:26.457Z,818.96
2023-03-14T01:01:26.409Z,819.56
2023-03-14T01:02:26.320Z,820.28
2023-03-14T01:03:26.169Z,820.80
2023-03-14T01:04:26.080Z,820.87
2023-03-14T01:05:26.493Z,821.52
2023-03-14T01:06:26.401Z,821.17
2023-03-14T01:07:26.330Z,820.88
2023-03-14T01:08:26.206Z,820.67
2023-03-14T01:09:26.111Z,820.52
2023-03-14T01:10:26.016Z,820.01
2023-03-14T01:11:26.444Z,820.45
2023-03-14T01:12:26.338Z,820.38
2023-03-14T01:13:26.235Z,820.38
2023-03-14T01:14:26.147Z,820.57
2023-03-14T01:15:26.052Z,820.65
2023-03-14T01:16:25.981Z,820.87
2023-03-14T01:17:26.367Z,820.81
2023-03-14T01:18:26.275Z,821.08
2023-03-14T01:19:26.215Z,821.55
2023-03-14T01:20:26.081Z,822.15
2023-03-14T01:21:25.993Z,822.92
2023-03-14T01:22:25.888Z,823.20
2023-03-14T01:23:26.307Z,823.02
2023-03-14T01:24:26.209Z,823.27
2023-03-14T01:25:26.123Z,823.26
2023-03-14T01:26:26.070Z,823.26
2023-03-14T01:27:25.922Z,823.32
2023-03-14T01:28:25.828Z,823.40
2023-03-14T01:29:26.241Z,823.79
2023-03-14T01:30:26.146Z,824.03
2023-03-14T01:31:26.116Z,823.75
2023-03-14T01:32:26.003Z,823.33
2023-03-14T01:33:25.860Z,823.00
2023-03-14T01:34:25.763Z,822.77
2023-03-14T01:35:26.183Z,822.86
2023-03-14T01:36:26.101Z,822.79
2023-03-14T01:37:25.998Z,822.92
2023-03-14T01:38:25.895Z,822.86
2023-03-14T01:39:25.803Z,822.97
2023-03-14T01:40:25.132Z,822.91
2023-03-14T01:41:26.139Z,822.60
2023-03-14T01:42:26.027Z,821.88
2023-03-14T01:43:25.926Z,821.36
2023-03-14T01:44:25.823Z,821.23
2023-03-14T01:45:25.809Z,820.89
2023-03-14T01:46:25.637Z,821.00
2023-03-14T01:47:26.056Z,820.20
2023-03-14T01:48:25.960Z,819.82
2023-03-14T01:49:25.862Z,819.88
2023-03-14T01:50:26.234Z,819.58
2023-03-14T01:51:25.669Z,819.78
2023-03-14T01:52:25.575Z,821.42
2023-03-14T01:53:26.008Z,823.08
2023-03-14T01:54:25.896Z,824.85
2023-03-14T01:55:26.307Z,825.53
2023-03-14T01:56:25.696Z,826.67
2023-03-14T01:57:25.622Z,827.26
2023-03-14T01:58:25.508Z,828.25
2023-03-14T01:59:25.927Z,828.89
2023-03-14T02:00:26.335Z,829.39
2023-03-14T02:01:25.856Z,829.92
2023-03-14T02:02:25.637Z,831.18
2023-03-14T02:03:25.631Z,832.44
2023-03-14T02:04:25.445Z,833.47
2023-03-14T02:05:25.869Z,835.44
2023-03-14T02:06:25.772Z,836.79
2023-03-14T02:07:25.670Z,838.76
2023-03-14T02:08:25.577Z,841.38
2023-03-14T02:09:25.478Z,843.26
2023-03-14T02:10:25.378Z,845.08
2023-03-14T02:11:25.536Z,846.83
2023-03-14T02:12:25.697Z,847.70
2023-03-14T02:13:25.605Z,848.11
2023-03-14T02:14:25.465Z,848.20
2023-03-14T02:15:25.406Z,848.42
2023-03-14T02:16:25.343Z,848.97
2023-03-14T02:17:25.308Z,849.19
2023-03-14T02:18:25.641Z,848.58
2023-03-14T02:19:25.536Z,847.51
2023-03-14T02:20:24.938Z,846.71
2023-03-14T02:21:25.344Z,846.53
2023-03-14T02:22:25.242Z,846.45
2023-03-14T02:23:25.152Z,846.55
2023-03-14T02:24:25.562Z,846.88
2023-03-14T02:25:25.469Z,847.63
2023-03-14T02:26:25.370Z,847.63
2023-03-14T02:27:25.292Z,847.84
2023-03-14T02:28:25.182Z,848.03
2023-03-14T02:29:25.083Z,848.35
2023-03-14T02:30:25.504Z,848.27
2023-03-14T02:31:25.542Z,848.14
2023-03-14T02:32:25.344Z,848.39
2023-03-14T02:33:25.215Z,848.63
2023-03-14T02:34:25.112Z,848.63
2023-03-14T02:35:26.042Z,848.63
2023-03-14T02:36:25.432Z,847.01
2023-03-14T02:37:25.345Z,845.16
2023-03-14T02:38:25.240Z,844.35
2023-03-14T02:39:25.148Z,844.54
2023-03-14T02:40:26.078Z,845.87
2023-03-14T02:41:24.951Z,847.67
2023-03-14T02:42:25.372Z,848.18
2023-03-14T02:43:25.275Z,848.77
2023-03-14T02:44:25.178Z,849.05
2023-03-14T02:45:25.089Z,849.19
2023-03-14T02:46:25.026Z,849.91
2023-03-14T02:47:24.894Z,850.32
2023-03-14T02:48:25.304Z,850.97
2023-03-14T02:49:25.212Z,851.80
2023-03-14T02:50:25.114Z,852.85
2023-03-14T02:51:25.017Z,853.72
2023-03-14T02:52:24.935Z,854.53
2023-03-14T02:53:24.828Z,856.12
2023-03-14T02:54:25.244Z,856.50
2023-03-14T02:55:25.146Z,857.51
2023-03-14T02:56:25.058Z,858.10
2023-03-14T02:57:24.951Z,858.29
2023-03-14T02:58:24.854Z,857.77
2023-03-14T02:59:24.473Z,857.65
2023-03-14T03:00:25.174Z,857.64
2023-03-14T03:01:25.184Z,857.98
2023-03-14T03:02:24.985Z,858.07
2023-03-14T03:03:24.929Z,858.70
2023-03-14T03:04:24.798Z,858.17
2023-03-14T03:05:24.696Z,858.31
2023-03-14T03:06:25.133Z,858.43
2023-03-14T03:07:25.017Z,859.56
2023-03-14T03:08:24.931Z,860.44
2023-03-14T03:09:24.832Z,860.44
2023-03-14T03:10:24.723Z,860.58
2023-03-14T03:11:24.642Z,860.70
2023-03-14T03:12:25.047Z,859.83
2023-03-14T03:13:24.967Z,858.29
2023-03-14T03:14:24.857Z,857.66
2023-03-14T03:15:24.761Z,857.79
2023-03-14T03:16:24.686Z,857.75
2023-03-14T03:17:24.578Z,857.39
2023-03-14T03:18:24.985Z,855.92
2023-03-14T03:19:24.891Z,855.09
2023-03-14T03:20:24.796Z,854.42
2023-03-14T03:21:24.710Z,853.95
2023-03-14T03:22:24.608Z,854.16
2023-03-14T03:23:24.510Z,853.25
2023-03-14T03:24:24.929Z,852.32
2023-03-14T03:25:25.349Z,851.84
2023-03-14T03:26:24.728Z,851.13
2023-03-14T03:27:24.648Z,850.45
2023-03-14T03:28:24.560Z,848.53
2023-03-14T03:29:24.442Z,847.46
2023-03-14T03:30:24.065Z,847.79
2023-03-14T03:31:24.764Z,848.55
2023-03-14T03:32:24.708Z,848.55
2023-03-14T03:33:24.578Z,849.04
2023-03-14T03:34:24.483Z,849.21
2023-03-14T03:35:24.399Z,849.58
2023-03-14T03:36:24.809Z,849.67
2023-03-14T03:37:24.705Z,850.14
2023-03-14T03:38:24.621Z,851.09
2023-03-14T03:39:24.514Z,850.92
2023-03-14T03:40:24.418Z,850.64
2023-03-14T03:41:24.319Z,850.70
2023-03-14T03:42:24.742Z,850.28
2023-03-14T03:43:24.643Z,849.93
2023-03-14T03:44:24.547Z,849.48
2023-03-14T03:45:24.449Z,848.82
2023-03-14T03:46:24.446Z,848.18
2023-03-14T03:47:23.870Z,848.05
2023-03-14T03:48:24.165Z,847.79
2023-03-14T03:49:24.579Z,847.86
2023-03-14T03:50:24.480Z,848.01
2023-03-14T03:51:24.388Z,848.14
2023-03-14T03:52:24.291Z,848.09
2023-03-14T03:53:33.224Z,847.91
2023-03-14T03:54:25.122Z,848.40
2023-03-14T03:55:24.518Z,848.43
2023-03-14T03:56:24.419Z,848.11
2023-03-14T03:57:24.321Z,847.33
2023-03-14T03:58:24.228Z,847.11
2023-03-14T03:59:24.130Z,847.68
2023-03-14T04:00:23.776Z,847.64
2023-03-14T04:01:24.477Z,847.46
2023-03-14T04:02:24.373Z,847.87
2023-03-14T04:03:24.274Z,848.52
2023-03-14T04:04:24.161Z,847.70
2023-03-14T04:05:24.096Z,847.84
2023-03-14T04:06:24.198Z,848.08
2023-03-14T04:07:24.382Z,847.87
2023-03-14T04:08:24.291Z,847.38
2023-03-14T04:09:24.197Z,846.61
2023-03-14T04:10:24.104Z,845.38
2023-03-14T04:11:24.143Z,844.77
2023-03-14T04:12:23.904Z,845.52
2023-03-14T04:13:23.696Z,845.33
2023-03-14T04:14:24.233Z,846.02
2023-03-14T04:15:24.133Z,846.49
2023-03-14T04:16:24.066Z,846.10
2023-03-14T04:17:23.941Z,845.77
2023-03-14T04:18:23.843Z,845.75
2023-03-14T04:19:24.256Z,845.45
2023-03-14T04:20:23.723Z,846.13
2023-03-14T04:21:24.070Z,846.75
2023-03-14T04:22:23.974Z,846.73
2023-03-14T04:23:23.879Z,846.36
2023-03-14T04:24:23.778Z,845.99
2023-03-14T04:25:24.224Z,845.46
2023-03-14T04:26:24.099Z,843.60
2023-03-14T04:27:24.005Z,842.58
2023-03-14T04:28:23.905Z,841.92
2023-03-14T04:29:23.823Z,841.29
2023-03-14T04:30:23.714Z,840.63
2023-03-14T04:31:24.197Z,840.28
2023-03-14T04:32:24.054Z,839.84
2023-03-14T04:33:23.937Z,839.71
2023-03-14T04:34:23.845Z,839.81
2023-03-14T04:35:23.746Z,840.34
2023-03-14T04:36:23.654Z,840.48
2023-03-14T04:37:24.067Z,840.05
2023-03-14T04:38:23.966Z,839.93
2023-03-14T04:39:23.876Z,839.61
2023-03-14T04:40:23.778Z,838.95
2023-03-14T04:41:23.695Z,838.86
2023-03-14T04:42:23.585Z,838.38
2023-03-14T04:43:24.011Z,838.24
2023-03-14T04:44:23.909Z,838.13
2023-03-14T04:45:23.811Z,838.81
2023-03-14T04:46:23.748Z,838.35
2023-03-14T04:47:23.639Z,837.80
2023-03-14T04:48:23.551Z,837.57
2023-03-14T04:49:23.938Z,837.99
2023-03-14T04:50:23.781Z,837.96
2023-03-14T04:51:23.753Z,838.08
2023-03-14T04:52:23.646Z,838.89
2023-03-14T04:53:23.558Z,839.67
2023-03-14T04:54:23.456Z,841.92
2023-03-14T04:55:24.555Z,844.24
2023-03-14T04:56:23.777Z,846.10
2023-03-14T04:57:23.676Z,846.86
2023-03-14T04:58:23.588Z,847.38
2023-03-14T04:59:23.497Z,848.20
2023-03-14T05:00:23.403Z,849.12
2023-03-14T05:01:23.824Z,849.13
2023-03-14T05:02:23.714Z,849.12
2023-03-14T05:03:23.619Z,849.75
2023-03-14T05:04:23.522Z,849.81
2023-03-14T05:05:23.424Z,849.32
2023-03-14T05:06:23.324Z,849.25
2023-03-14T05:07:23.742Z,849.27
2023-03-14T05:08:23.644Z,849.47
2023-03-14T05:09:23.544Z,849.75
2023-03-14T05:10:23.482Z,849.33
2023-03-14T05:11:23.357Z,849.20
2023-03-14T05:12:23.272Z,849.51
2023-03-14T05:13:23.697Z,849.65
2023-03-14T05:14:22.934Z,849.75
2023-03-14T05:15:23.494Z,850.16
2023-03-14T05:16:23.423Z,850.74
2023-03-14T05:17:23.292Z,850.95
2023-03-14T05:18:23.196Z,851.01
2023-03-14T05:19:23.108Z,850.90
2023-03-14T05:20:23.520Z,850.87
2023-03-14T05:21:23.414Z,851.52
2023-03-14T05:22:23.328Z,852.22
2023-03-14T05:23:23.228Z,852.89
2023-03-14T05:24:22.854Z,853.22
2023-03-14T05:25:23.253Z,853.97
2023-03-14T05:26:23.451Z,855.47
2023-03-14T05:27:23.353Z,856.20
2023-03-14T05:28:23.257Z,856.34
2023-03-14T05:29:23.180Z,856.97
2023-03-14T05:30:23.078Z,857.36
2023-03-14T05:31:23.221Z,858.41
2023-03-14T05:32:23.397Z,859.73
2023-03-14T05:33:23.295Z,861.27
2023-03-14T05:34:23.199Z,862.37
2023-03-14T05:35:23.094Z,863.17
2023-03-14T05:36:26.460Z,863.93
2023-03-14T05:37:22.917Z,864.60
2023-03-14T05:38:23.333Z,865.12
2023-03-14T05:39:23.227Z,866.02
2023-03-14T05:40:23.129Z,866.51
2023-03-14T05:41:23.038Z,867.54
2023-03-14T05:42:22.955Z,868.12
2023-03-14T05:43:22.856Z,868.64
2023-03-14T05:44:23.262Z,870.22
2023-03-14T05:45:23.168Z,870.68
2023-03-14T05:46:23.123Z,871.11
2023-03-14T05:47:22.973Z,871.46
2023-03-14T05:48:22.881Z,871.91
2023-03-14T05:49:22.782Z,871.81
2023-03-14T05:50:23.236Z,871.83
2023-03-14T05:51:23.102Z,872.04
2023-03-14T05:52:23.026Z,872.48
2023-03-14T05:53:22.913Z,873.08
2023-03-14T05:54:22.820Z,872.91
2023-03-14T05:55:22.736Z,873.13
2023-03-14T05:56:23.133Z,873.08
2023-03-14T05:57:22.025Z,872.95
2023-03-14T05:58:22.950Z,873.02
2023-03-14T05:59:22.421Z,873.44
2023-03-14T06:00:22.860Z,874.15
2023-03-14T06:01:22.664Z,874.88
2023-03-14T06:02:23.172Z,875.85
2023-03-14T06:03:23.033Z,876.05
2023-03-14T06:04:22.876Z,876.60
2023-03-14T06:05:22.782Z,877.89
2023-03-14T06:06:22.681Z,880.42
2023-03-14T06:07:22.591Z,883.36
2023-03-14T06:08:23.013Z,882.82
2023-03-14T06:09:22.910Z,879.48
2023-03-14T06:10:22.810Z,876.57
2023-03-14T06:11:22.729Z,875.80
2023-03-14T06:12:22.626Z,875.34
2023-03-14T06:13:22.521Z,875.25
2023-03-14T06:14:22.940Z,876.39
2023-03-14T06:15:22.851Z,877.47
2023-03-14T06:16:22.776Z,878.18
2023-03-14T06:17:22.650Z,878.47
2023-03-14T06:18:24.614Z,879.48
2023-03-14T06:19:22.460Z,881.34
2023-03-14T06:20:22.870Z,883.52
2023-03-14T06:21:22.784Z,884.19
2023-03-14T06:22:22.690Z,884.91
2023-03-14T06:23:22.580Z,885.39
2023-03-14T06:24:22.500Z,886.34
2023-03-14T06:25:22.396Z,888.33
2023-03-14T06:26:23.069Z,890.48
2023-03-14T06:27:22.132Z,891.66
2023-03-14T06:28:26.175Z,892.33
2023-03-14T06:29:22.524Z,892.40
2023-03-14T06:30:22.422Z,892.87
2023-03-14T06:31:22.369Z,894.56
2023-03-14T06:32:22.840Z,895.80
2023-03-14T06:33:22.653Z,896.32
2023-03-14T06:34:22.558Z,895.13
2023-03-14T06:35:22.464Z,893.35
2023-03-14T06:36:22.364Z,891.30
2023-03-14T06:37:22.269Z,890.16
2023-03-14T06:38:22.175Z,889.65
2023-03-14T06:39:22.586Z,889.18
2023-03-14T06:40:22.494Z,889.76
2023-03-14T06:41:22.413Z,890.22
2023-03-14T06:42:22.297Z,888.99
2023-03-14T06:43:22.207Z,887.03
2023-03-14T06:44:22.631Z,885.19
2023-03-14T06:45:22.525Z,884.07
2023-03-14T06:46:22.474Z,883.79
2023-03-14T06:47:22.350Z,883.49
2023-03-14T06:48:22.246Z,884.63
2023-03-14T06:49:22.164Z,886.64
2023-03-14T06:50:22.566Z,892.31
2023-03-14T06:51:22.462Z,897.06
2023-03-14T06:52:22.368Z,889.12
2023-03-14T06:53:22.275Z,907.83
2023-03-14T06:54:22.171Z,910.24
2023-03-14T06:55:22.747Z,912.52
2023-03-14T06:56:22.494Z,910.74
2023-03-14T06:57:22.402Z,915.23
2023-03-14T06:58:22.298Z,918.20
2023-03-14T06:59:22.216Z,912.09
2023-03-14T07:00:22.112Z,917.52
2023-03-14T07:01:22.037Z,919.19
2023-03-14T07:02:32.483Z,898.60
2023-03-14T07:03:23.367Z,892.21
2023-03-14T07:04:22.273Z,892.92
2023-03-14T07:05:22.142Z,896.44
2023-03-14T07:06:22.073Z,913.97
2023-03-14T07:07:21.963Z,931.33
2023-03-14T07:08:21.855Z,935.40
2023-03-14T07:09:22.304Z,935.48
2023-03-14T07:10:22.210Z,926.93
2023-03-14T07:11:22.082Z,909.37
2023-03-14T07:12:21.993Z,904.04
2023-03-14T07:13:21.581Z,905.03
2023-03-14T07:14:22.071Z,912.53
2023-03-14T07:15:22.210Z,916.29
2023-03-14T07:16:22.160Z,922.34
2023-03-14T07:17:22.016Z,925.02
2023-03-14T07:18:21.105Z,914.64
2023-03-14T07:19:21.848Z,907.99
2023-03-14T07:20:21.755Z,871.79
2023-03-14T07:21:22.142Z,860.75
2023-03-14T07:22:21.452Z,858.25
2023-03-14T07:23:21.982Z,857.15
2023-03-14T07:24:21.878Z,860.23
2023-03-14T07:25:21.800Z,861.93
2023-03-14T07:26:21.669Z,861.27
2023-03-14T07:27:22.074Z,866.42
2023-03-14T07:28:21.983Z,866.92
2023-03-14T07:29:21.886Z,887.75
2023-03-14T07:30:21.875Z,899.67
2023-03-14T07:31:21.808Z,896.40
2023-03-14T07:32:21.643Z,893.31
2023-03-14T07:33:22.019Z,889.79
2023-03-14T07:34:21.924Z,887.49
2023-03-14T07:35:21.866Z,883.74
2023-03-14T07:36:21.739Z,876.87
2023-03-14T07:37:21.632Z,882.57
2023-03-14T07:38:22.823Z,888.34
2023-03-14T07:39:21.949Z,891.56
2023-03-14T07:40:21.895Z,893.42
2023-03-14T07:41:21.814Z,894.18
2023-03-14T07:42:21.706Z,893.62
2023-03-14T07:43:21.572Z,894.71
2023-03-14T07:44:21.475Z,896.23
2023-03-14T07:45:21.890Z,894.77
2023-03-14T07:46:21.869Z,894.47
2023-03-14T07:47:21.706Z,896.39
2023-03-14T07:48:21.605Z,897.51
2023-03-14T07:49:21.518Z,897.06
2023-03-14T07:50:21.412Z,894.53
2023-03-14T07:51:21.874Z,890.43
2023-03-14T07:52:21.731Z,885.48
2023-03-14T07:53:21.633Z,885.26
2023-03-14T07:54:21.545Z,886.02
2023-03-14T07:55:21.552Z,885.93
2023-03-14T07:56:21.535Z,890.47
2023-03-14T07:57:21.786Z,887.52
2023-03-14T07:58:21.670Z,890.55
2023-03-14T07:59:21.580Z,891.43
2023-03-14T08:00:21.510Z,847.29
2023-03-14T08:01:21.494Z,858.19
2023-03-14T08:02:21.333Z,853.14
2023-03-14T08:03:21.704Z,863.46
2023-03-14T08:04:21.609Z,934.48
2023-03-14T08:05:21.504Z,931.21
2023-03-14T08:06:21.417Z,932.32
2023-03-14T08:07:21.417Z,940.16
2023-03-14T08:08:21.213Z,941.57
2023-03-14T08:09:21.633Z,941.36
2023-03-14T08:10:21.547Z,892.22
2023-03-14T08:11:20.943Z,903.49
2023-03-14T08:12:21.345Z,929.37
2023-03-14T08:13:21.256Z,858.02
2023-03-14T08:14:21.158Z,876.72
2023-03-14T08:15:21.574Z,908.39
2023-03-14T08:16:21.538Z,928.11
2023-03-14T08:17:21.388Z,894.74
2023-03-14T08:18:21.285Z,877.82
2023-03-14T08:19:21.279Z,905.83
2023-03-14T08:20:21.091Z,892.91
2023-03-14T08:21:20.839Z,938.50
2023-03-14T08:22:21.412Z,960.41
2023-03-14T08:23:21.343Z,964.30
2023-03-14T08:24:21.218Z,973.16
2023-03-14T08:25:21.140Z,975.70
2023-03-14T08:26:21.034Z,949.21
2023-03-14T08:27:21.451Z,960.48
2023-03-14T08:28:21.350Z,961.74
2023-03-14T08:29:21.249Z,977.03
2023-03-14T08:30:21.199Z,989.97
2023-03-14T08:31:21.212Z,982.06
2023-03-14T08:32:21.047Z,976.46
2023-03-14T08:33:21.384Z,981.65
2023-03-14T08:34:21.292Z,991.23
2023-03-14T08:35:21.202Z,990.21
2023-03-14T08:36:23.780Z,966.86
2023-03-14T08:37:26.767Z,920.97
2023-03-14T08:38:21.925Z,858.46
2023-03-14T08:39:21.365Z,821.69
2023-03-14T08:40:21.218Z,810.80
2023-03-14T08:41:21.133Z,814.78
2023-03-14T08:42:21.028Z,826.22
2023-03-14T08:43:20.933Z,835.50
2023-03-14T08:44:21.022Z,844.38
2023-03-14T08:45:21.255Z,845.24
2023-03-14T08:46:21.393Z,847.60
2023-03-14T08:47:21.081Z,852.58
2023-03-14T08:48:20.957Z,854.52
2023-03-14T08:49:20.913Z,853.91
2023-03-14T08:50:20.785Z,855.49
2023-03-14T08:51:20.929Z,866.05
2023-03-14T08:52:21.090Z,881.29
2023-03-14T08:53:20.992Z,887.62
2023-03-14T08:54:20.899Z,879.86
2023-03-14T08:55:20.800Z,866.06
2023-03-14T08:56:20.704Z,861.48
2023-03-14T08:57:21.120Z,885.73
2023-03-14T08:58:21.020Z,932.61
2023-03-14T08:59:20.934Z,958.23
2023-03-14T09:00:20.833Z,966.08
2023-03-14T09:01:20.758Z,965.19
2023-03-14T09:02:20.641Z,966.43
2023-03-14T09:03:20.599Z,959.57
2023-03-14T09:04:20.986Z,933.91
2023-03-14T09:05:20.862Z,878.42
2023-03-14T09:06:20.773Z,849.99
2023-03-14T09:07:20.673Z,836.42
2023-03-14T09:08:20.583Z,828.15
2023-03-14T09:09:20.480Z,826.91
2023-03-14T09:10:20.893Z,824.46
2023-03-14T09:11:20.812Z,824.88
2023-03-14T09:12:20.703Z,823.97
2023-03-14T09:13:20.615Z,820.66
2023-03-14T09:14:22.550Z,822.46
2023-03-14T09:15:20.646Z,826.29
2023-03-14T09:16:20.886Z,832.06
2023-03-14T09:17:20.737Z,837.92
2023-03-14T09:18:20.644Z,843.13
2023-03-14T09:19:20.548Z,845.40
2023-03-14T09:20:20.451Z,847.46
2023-03-14T09:21:20.355Z,856.63
2023-03-14T09:22:20.784Z,864.21
2023-03-14T09:23:20.680Z,879.15
2023-03-14T09:24:20.576Z,889.99
2023-03-14T09:25:20.486Z,883.54
2023-03-14T09:26:20.388Z,870.86
2023-03-14T09:27:20.288Z,874.10
2023-03-14T09:28:20.717Z,908.22
2023-03-14T09:29:20.608Z,935.30
2023-03-14T09:30:20.522Z,942.05
2023-03-14T09:31:20.479Z,933.44
2023-03-14T09:32:20.390Z,913.21
2023-03-14T09:33:20.228Z,892.97
2023-03-14T09:34:20.660Z,883.81
2023-03-14T09:35:20.563Z,880.34
2023-03-14T09:36:20.450Z,891.31
2023-03-14T09:37:20.357Z,901.81
2023-03-14T09:38:20.269Z,900.90
2023-03-14T09:39:20.162Z,896.40
2023-03-14T09:40:20.594Z,898.11
2023-03-14T09:41:20.489Z,899.15
2023-03-14T09:42:20.437Z,896.44
2023-03-14T09:43:20.333Z,889.63
2023-03-14T09:44:20.194Z,882.64
2023-03-14T09:45:22.095Z,878.54
2023-03-14T09:46:20.522Z,877.14
2023-03-14T09:47:20.422Z,885.22
2023-03-14T09:48:20.319Z,892.28
2023-03-14T09:49:20.232Z,891.38
2023-03-14T09:50:20.259Z,890.03
2023-03-14T09:51:20.046Z,894.94
2023-03-14T09:52:20.447Z,900.71
2023-03-14T09:53:20.347Z,908.45
2023-03-14T09:54:20.256Z,915.93
2023-03-14T09:55:20.165Z,917.44
2023-03-14T09:56:20.198Z,905.69
2023-03-14T09:57:19.965Z,890.48
2023-03-14T09:58:20.393Z,877.58
2023-03-14T09:59:20.284Z,883.60
2023-03-14T10:00:20.254Z,895.18
2023-03-14T10:01:20.176Z,920.28
2023-03-14T10:02:19.994Z,946.13
2023-03-14T10:03:20.095Z,964.05
2023-03-14T10:04:20.382Z,973.80
2023-03-14T10:05:20.213Z,974.10
2023-03-14T10:06:20.124Z,962.17
2023-03-14T10:07:20.062Z,977.64
2023-03-14T10:08:19.925Z,984.49
2023-03-14T10:09:19.836Z,987.89
2023-03-14T10:10:20.362Z,990.01
2023-03-14T10:11:20.152Z,1002.77
2023-03-14T10:12:20.084Z,1007.23
2023-03-14T10:13:19.975Z,1008.88
2023-03-14T10:14:19.866Z,1009.65
2023-03-14T10:15:19.765Z,1009.67
2023-03-14T10:16:20.208Z,1008.26
2023-03-14T10:17:20.106Z,1005.40
2023-03-14T10:18:19.993Z,1002.53
2023-03-14T10:19:19.898Z,1003.71
2023-03-14T10:20:19.802Z,1001.41
2023-03-14T10:21:19.714Z,999.34
2023-03-14T10:22:20.116Z,998.98
2023-03-14T10:23:20.028Z,1000.79
2023-03-14T10:24:19.963Z,1002.40
2023-03-14T10:25:19.847Z,1004.58
2023-03-14T10:26:19.735Z,1001.93
2023-03-14T10:27:22.135Z,1005.70
2023-03-14T10:28:20.057Z,1003.65
2023-03-14T10:29:19.967Z,1001.83
2023-03-14T10:30:19.864Z,994.42
2023-03-14T10:31:19.779Z,1001.16
2023-03-14T10:32:19.787Z,1013.30
2023-03-14T10:33:19.581Z,1024.70
2023-03-14T10:34:19.762Z,1028.61
2023-03-14T10:35:19.912Z,1030.38
2023-03-14T10:36:19.881Z,1032.42
2023-03-14T10:37:19.709Z,1029.83
2023-03-14T10:38:19.610Z,1030.37
2023-03-14T10:39:19.711Z,1027.71
2023-03-14T10:40:19.933Z,1025.20
2023-03-14T10:41:19.838Z,1027.84
2023-03-14T10:42:19.752Z,1026.02
2023-03-14T10:43:19.644Z,1020.42
2023-03-14T10:44:19.652Z,1022.47
2023-03-14T10:45:18.744Z,1017.43
2023-03-14T10:46:19.930Z,1018.30
2023-03-14T10:47:19.145Z,1017.33
2023-03-14T10:48:19.681Z,1020.89
2023-03-14T10:49:19.584Z,1020.74
2023-03-14T10:50:19.587Z,1020.43
2023-03-14T10:51:19.394Z,1018.64
2023-03-14T10:52:19.836Z,1019.48
2023-03-14T10:53:19.717Z,1018.80
2023-03-14T10:54:19.616Z,1017.62
2023-03-14T10:55:19.519Z,1017.45
2023-03-14T10:56:19.427Z,1018.53
2023-03-14T10:57:19.328Z,1019.57
2023-03-14T10:58:19.790Z,1018.81
2023-03-14T10:59:19.650Z,1022.05
2023-03-14T11:00:19.577Z,1024.51
2023-03-14T11:01:19.500Z,1025.07
2023-03-14T11:02:19.357Z,1021.92
2023-03-14T11:03:19.444Z,1020.62
2023-03-14T11:04:19.733Z,1022.00
2023-03-14T11:05:19.585Z,1019.64
2023-03-14T11:06:19.486Z,1017.31
2023-03-14T11:07:19.387Z,1019.90
2023-03-14T11:08:19.307Z,1018.99
2023-03-14T11:09:19.198Z,1020.04
2023-03-14T11:10:19.105Z,1023.82
2023-03-14T11:11:19.518Z,1023.15
2023-03-14T11:12:19.428Z,1022.05
2023-03-14T11:13:19.330Z,1019.99
2023-03-14T11:14:19.227Z,1022.00
2023-03-14T11:15:19.148Z,1023.43
2023-03-14T11:16:19.092Z,1016.84
2023-03-14T11:17:19.459Z,1017.51
2023-03-14T11:18:19.358Z,1018.22
2023-03-14T11:19:19.294Z,1020.72
2023-03-14T11:20:19.189Z,1020.20
2023-03-14T11:21:19.071Z,1015.23
2023-03-14T11:22:19.507Z,1017.09
2023-03-14T11:23:19.391Z,1018.04
2023-03-14T11:24:19.320Z,1011.47
2023-03-14T11:25:19.199Z,1017.01
2023-03-14T11:26:19.100Z,1015.37
2023-03-14T11:27:19.021Z,1024.03
2023-03-14T11:28:19.425Z,1027.26
2023-03-14T11:29:19.330Z,1031.69
2023-03-14T11:30:19.239Z,1032.21
2023-03-14T11:31:19.169Z,1021.37
2023-03-14T11:32:18.698Z,1010.28
2023-03-14T11:33:18.942Z,1007.22
2023-03-14T11:34:19.364Z,1009.24
2023-03-14T11:35:19.262Z,1010.72
2023-03-14T11:36:19.235Z,1007.70
2023-03-14T11:37:19.301Z,1008.67
2023-03-14T11:38:19.066Z,1015.12
2023-03-14T11:39:18.905Z,1024.07
2023-03-14T11:40:19.301Z,1034.22
2023-03-14T11:41:19.212Z,1037.22
2023-03-14T11:42:19.101Z,1037.33
2023-03-14T11:43:19.013Z,1037.52
2023-03-14T11:44:18.913Z,1037.36
2023-03-14T11:45:18.821Z,1037.56
2023-03-14T11:46:19.059Z,1037.69
2023-03-14T11:47:19.136Z,1037.96
2023-03-14T11:48:18.511Z,1037.99
2023-03-14T11:49:18.947Z,1038.07
2023-03-14T11:50:18.851Z,1038.06
2023-03-14T11:51:18.755Z,1038.03
2023-03-14T11:52:18.825Z,1038.05
2023-03-14T11:53:19.076Z,1036.84
2023-03-14T11:54:18.974Z,1037.81
2023-03-14T11:55:19.034Z,1035.11
2023-03-14T11:56:18.853Z,1032.20
2023-03-14T11:57:18.814Z,1034.21
2023-03-14T11:58:19.118Z,1037.53
2023-03-14T11:59:19.013Z,1038.04
2023-03-14T12:00:18.926Z,1038.30
2023-03-14T12:01:18.915Z,1038.39
2023-03-14T12:02:18.836Z,1038.73
2023-03-14T12:03:18.625Z,1038.77
2023-03-14T12:04:18.826Z,1038.44
2023-03-14T12:05:19.005Z,1038.70
2023-03-14T12:06:18.842Z,1038.74
2023-03-14T12:07:18.753Z,1038.85
2023-03-14T12:08:18.653Z,1038.94
2023-03-14T12:09:18.700Z,1038.96
2023-03-14T12:10:18.694Z,1038.94
2023-03-14T12:11:18.883Z,1038.87
2023-03-14T12:12:18.783Z,1038.49
2023-03-14T12:13:18.706Z,1028.56
2023-03-14T12:14:18.614Z,1028.89
2023-03-14T12:15:18.499Z,1014.88
2023-03-14T12:16:18.679Z,1004.15
2023-03-14T12:17:18.820Z,993.74
2023-03-14T12:18:18.717Z,958.71
2023-03-14T12:19:18.625Z,941.87
2023-03-14T12:20:18.084Z,949.72
2023-03-14T12:21:18.431Z,983.24
2023-03-14T12:22:18.537Z,1010.33
2023-03-14T12:23:18.756Z,1028.25
2023-03-14T12:24:18.655Z,1033.90